Startpagina
METAR-TAF:

METAR-TAF

Vliegvelden :

Katima Mulilo, Namibië

breedte: 17-38-04S, lengte: 024-10-36E, hoogte: 985 m

Actueel weer

Dit bericht is 51 minuten geleden gemaakt, om 08:00 UTC
Wind 4 kt uit het noordoosten
Temperatuur 26°C
Vochtigheid 70%
Druk 1017 hPa
Zicht 10 km of meer
Verspreide wolken op 2500 ft

METAR: FYKM 200800Z 05004KT 9999 SCT025 26/20 Q1017

Tijdstip: 10:51 (08:51 UTC)

Verwachting

Dit bericht is 51 minuten geleden gemaakt, om 08:00 UTC
Verwachting geldig van 20 om 09 UTC tot 20 om 18 UTC
Wind 6 kt uit het noordoosten
Zicht 10 km of meer
Verspreide wolken op 2500 ft
Wijzigt naar
van 20 om 10 UTC tot 20 om 12 UTC
Verspreide wolken op 4500 ft
Kans 30% :
Tijdelijke
van 20 om 13 UTC tot 20 om 18 UTC
Weinig wolken op 3500 ft, Cumulonimbus.
Verspreide wolken op 4000 ft, Stapelwolken.
onweer, lichte regen

TAF: FYKM 200800Z 2009/2018 05006KT 9999 SCT025 BECMG 2010/2012 SCT045 PROB30 TEMPO 2013/2018 -TSRA FEW035CB SCT040TCU

Waarnemingen en weersverwachtingen van meer dan 4000 vliegvelden (METAR en TAF).

De beschikbare stations zijn de gele en rode punten op de kaart.

Ga met uw muis naar het station om de naam te zien.

Klik dan om waarnemingen en weersverwachtingen te zien.

kaart wijzigen: klik op de groene knoppen met een zwart kruis om in te zoomen, op de groene knop met een streepje om uit te zoomen of op de groene pijlen voor aangrenzende kaarten.


METAR-TAF: